sensor_id;sensor_type;location;lat;lon;timestamp;pressure;altitude;pressure_sealevel;temperature;humidity
79799;BME280;69283;48.024;11.090;2023-04-24T00:01:14;94491.56;;;9.30;80.27
79799;BME280;69283;48.024;11.090;2023-04-24T00:03:40;94496.09;;;9.26;80.85
79799;BME280;69283;48.024;11.090;2023-04-24T00:06:06;94500.81;;;9.29;80.47
79799;BME280;69283;48.024;11.090;2023-04-24T00:08:33;94492.63;;;9.26;79.94
79799;BME280;69283;48.024;11.090;2023-04-24T00:10:58;94494.97;;;9.27;80.42
79799;BME280;69283;48.024;11.090;2023-04-24T00:13:24;94493.13;;;9.15;80.36
79799;BME280;69283;48.024;11.090;2023-04-24T00:15:49;94492.69;;;9.13;80.44
79799;BME280;69283;48.024;11.090;2023-04-24T00:18:15;94489.53;;;9.11;80.02
79799;BME280;69283;48.024;11.090;2023-04-24T00:20:40;94492.06;;;9.04;79.50
79799;BME280;69283;48.024;11.090;2023-04-24T00:23:05;94498.16;;;9.01;80.44
79799;BME280;69283;48.024;11.090;2023-04-24T00:25:31;94489.50;;;8.96;81.07
79799;BME280;69283;48.024;11.090;2023-04-24T00:27:56;94499.78;;;8.90;80.21
79799;BME280;69283;48.024;11.090;2023-04-24T00:30:21;94500.22;;;8.92;81.04
79799;BME280;69283;48.024;11.090;2023-04-24T00:32:47;94489.50;;;8.96;80.27
79799;BME280;69283;48.024;11.090;2023-04-24T00:35:12;94493.25;;;8.91;80.35
79799;BME280;69283;48.024;11.090;2023-04-24T00:37:37;94495.16;;;8.91;79.98
79799;BME280;69283;48.024;11.090;2023-04-24T00:40:03;94492.38;;;8.87;79.67
79799;BME280;69283;48.024;11.090;2023-04-24T00:42:28;94485.31;;;8.82;78.49
79799;BME280;69283;48.024;11.090;2023-04-24T00:44:53;94482.06;;;8.77;80.09
79799;BME280;69283;48.024;11.090;2023-04-24T00:47:19;94485.88;;;8.76;79.86
79799;BME280;69283;48.024;11.090;2023-04-24T00:49:45;94486.59;;;8.73;79.91
79799;BME280;69283;48.024;11.090;2023-04-24T00:52:10;94485.47;;;8.74;79.89
79799;BME280;69283;48.024;11.090;2023-04-24T00:54:37;94486.69;;;8.76;80.36
79799;BME280;69283;48.024;11.090;2023-04-24T00:57:03;94477.44;;;8.77;79.64
79799;BME280;69283;48.024;11.090;2023-04-24T00:59:29;94467.41;;;8.78;80.17
79799;BME280;69283;48.024;11.090;2023-04-24T01:01:55;94473.59;;;8.78;79.59
79799;BME280;69283;48.024;11.090;2023-04-24T01:04:20;94463.59;;;8.79;79.22
79799;BME280;69283;48.024;11.090;2023-04-24T01:06:46;94468.56;;;8.77;79.32
79799;BME280;69283;48.024;11.090;2023-04-24T01:09:13;94455.94;;;8.81;79.41
79799;BME280;69283;48.024;11.090;2023-04-24T01:11:41;94455.13;;;8.80;78.48
79799;BME280;69283;48.024;11.090;2023-04-24T01:14:07;94461.59;;;8.76;78.90
79799;BME280;69283;48.024;11.090;2023-04-24T01:16:32;94458.66;;;8.81;79.73
79799;BME280;69283;48.024;11.090;2023-04-24T01:18:58;94455.47;;;8.79;78.54
79799;BME280;69283;48.024;11.090;2023-04-24T01:21:26;94456.19;;;8.76;78.71
79799;BME280;69283;48.024;11.090;2023-04-24T01:23:53;94453.47;;;8.76;79.40
79799;BME280;69283;48.024;11.090;2023-04-24T01:26:19;94447.63;;;8.74;78.99
79799;BME280;69283;48.024;11.090;2023-04-24T01:28:45;94457.31;;;8.75;79.52
79799;BME280;69283;48.024;11.090;2023-04-24T01:31:11;94453.47;;;8.76;78.60
79799;BME280;69283;48.024;11.090;2023-04-24T01:33:36;94463.84;;;8.74;78.92
79799;BME280;69283;48.024;11.090;2023-04-24T01:36:02;94456.34;;;8.67;78.99
79799;BME280;69283;48.024;11.090;2023-04-24T01:38:27;94460.88;;;8.63;79.91
79799;BME280;69283;48.024;11.090;2023-04-24T01:40:53;94455.22;;;8.68;79.55
79799;BME280;69283;48.024;11.090;2023-04-24T01:43:19;94447.91;;;8.69;79.27
79799;BME280;69283;48.024;11.090;2023-04-24T01:45:44;94449.47;;;8.70;79.68
79799;BME280;69283;48.024;11.090;2023-04-24T01:48:11;94451.03;;;8.71;79.01
79799;BME280;69283;48.024;11.090;2023-04-24T01:50:37;94447.91;;;8.69;78.96
79799;BME280;69283;48.024;11.090;2023-04-24T01:53:02;94440.06;;;8.64;79.60
79799;BME280;69283;48.024;11.090;2023-04-24T01:55:27;94454.00;;;8.66;79.87
79799;BME280;69283;48.024;11.090;2023-04-24T01:57:55;94453.91;;;8.62;79.71
79799;BME280;69283;48.024;11.090;2023-04-24T02:00:20;94445.25;;;8.57;80.04
79799;BME280;69283;48.024;11.090;2023-04-24T02:02:46;94452.34;;;8.61;80.29
79799;BME280;69283;48.024;11.090;2023-04-24T02:05:11;94452.00;;;8.63;80.68
79799;BME280;69283;48.024;11.090;2023-04-24T02:07:36;94452.66;;;8.60;80.13
79799;BME280;69283;48.024;11.090;2023-04-24T02:10:02;94456.13;;;8.60;79.59
79799;BME280;69283;48.024;11.090;2023-04-24T02:12:29;94450.41;;;8.62;79.60
79799;BME280;69283;48.024;11.090;2023-04-24T02:14:54;94447.72;;;8.62;79.39
79799;BME280;69283;48.024;11.090;2023-04-24T02:17:19;94454.34;;;8.64;80.48
79799;BME280;69283;48.024;11.090;2023-04-24T02:19:45;94450.06;;;8.63;80.60
79799;BME280;69283;48.024;11.090;2023-04-24T02:22:11;94460.31;;;8.58;80.65
79799;BME280;69283;48.024;11.090;2023-04-24T02:24:37;94457.72;;;8.61;80.92
79799;BME280;69283;48.024;11.090;2023-04-24T02:27:02;94457.38;;;8.63;80.78
79799;BME280;69283;48.024;11.090;2023-04-24T02:29:28;94462.00;;;8.62;80.81
79799;BME280;69283;48.024;11.090;2023-04-24T02:31:53;94459.84;;;8.68;80.41
79799;BME280;69283;48.024;11.090;2023-04-24T02:34:18;94463.66;;;8.67;81.06
79799;BME280;69283;48.024;11.090;2023-04-24T02:36:44;94465.66;;;8.70;80.74
79799;BME280;69283;48.024;11.090;2023-04-24T02:39:09;94464.53;;;8.71;80.64
79799;BME280;69283;48.024;11.090;2023-04-24T02:41:34;94468.72;;;8.68;81.17
79799;BME280;69283;48.024;11.090;2023-04-24T02:44:00;94462.97;;;8.70;80.89
79799;BME280;69283;48.024;11.090;2023-04-24T02:46:25;94475.78;;;8.73;80.81
79799;BME280;69283;48.024;11.090;2023-04-24T02:48:51;94471.84;;;8.70;81.16
79799;BME280;69283;48.024;11.090;2023-04-24T02:51:16;94467.59;;;8.69;81.79
79799;BME280;69283;48.024;11.090;2023-04-24T02:53:41;94468.72;;;8.68;81.71
79799;BME280;69283;48.024;11.090;2023-04-24T02:56:07;94468.63;;;8.65;81.75
79799;BME280;69283;48.024;11.090;2023-04-24T02:58:32;94461.31;;;8.65;82.01
79799;BME280;69283;48.024;11.090;2023-04-24T03:00:57;94469.41;;;8.65;82.48
79799;BME280;69283;48.024;11.090;2023-04-24T03:03:23;94477.94;;;8.67;82.68
79799;BME280;69283;48.024;11.090;2023-04-24T03:05:48;94470.91;;;8.63;82.89
79799;BME280;69283;48.024;11.090;2023-04-24T03:08:14;94464.34;;;8.64;83.31
79799;BME280;69283;48.024;11.090;2023-04-24T03:10:39;94468.38;;;8.70;83.05
79799;BME280;69283;48.024;11.090;2023-04-24T03:13:05;94457.81;;;8.65;82.91
79799;BME280;69283;48.024;11.090;2023-04-24T03:15:30;94452.34;;;8.61;81.93
79799;BME280;69283;48.024;11.090;2023-04-24T03:17:56;94454.81;;;8.54;82.79
79799;BME280;69283;48.024;11.090;2023-04-24T03:20:21;94456.38;;;8.55;82.64
79799;BME280;69283;48.024;11.090;2023-04-24T03:22:46;94450.13;;;8.51;82.83
79799;BME280;69283;48.024;11.090;2023-04-24T03:25:11;94449.06;;;8.56;82.84
79799;BME280;69283;48.024;11.090;2023-04-24T03:27:37;94447.50;;;8.54;82.87
79799;BME280;69283;48.024;11.090;2023-04-24T03:30:02;94444.72;;;8.51;82.63
79799;BME280;69283;48.024;11.090;2023-04-24T03:32:28;94443.50;;;8.48;82.67
79799;BME280;69283;48.024;11.090;2023-04-24T03:34:53;94444.63;;;8.47;83.30
79799;BME280;69283;48.024;11.090;2023-04-24T03:37:18;94444.72;;;8.51;82.15
79799;BME280;69283;48.024;11.090;2023-04-24T03:39:44;94451.50;;;8.45;82.24
79799;BME280;69283;48.024;11.090;2023-04-24T03:42:09;94447.31;;;8.47;82.03
79799;BME280;69283;48.024;11.090;2023-04-24T03:44:35;94444.88;;;8.42;81.62
79799;BME280;69283;48.024;11.090;2023-04-24T03:47:01;94449.38;;;8.38;83.14
79799;BME280;69283;48.024;11.090;2023-04-24T03:49:26;94450.94;;;8.39;82.78
79799;BME280;69283;48.024;11.090;2023-04-24T03:51:51;94450.50;;;8.37;82.32
79799;BME280;69283;48.024;11.090;2023-04-24T03:54:18;94456.00;;;8.41;82.81
79799;BME280;69283;48.024;11.090;2023-04-24T03:56:43;94460.72;;;8.44;82.49
79799;BME280;69283;48.024;11.090;2023-04-24T03:59:08;94459.25;;;8.46;81.99
79799;BME280;69283;48.024;11.090;2023-04-24T04:01:33;94457.25;;;8.43;82.08
79799;BME280;69283;48.024;11.090;2023-04-24T04:04:02;94459.59;;;8.45;81.33
79799;BME280;69283;48.024;11.090;2023-04-24T04:06:28;94458.03;;;8.44;82.32
79799;BME280;69283;48.024;11.090;2023-04-24T04:08:53;94459.59;;;8.45;82.56
79799;BME280;69283;48.024;11.090;2023-04-24T04:11:19;94458.13;;;8.47;82.36
79799;BME280;69283;48.024;11.090;2023-04-24T04:13:44;94460.81;;;8.47;81.99
79799;BME280;69283;48.024;11.090;2023-04-24T04:16:10;94458.91;;;8.48;82.21
79799;BME280;69283;48.024;11.090;2023-04-24T04:18:35;94464.75;;;8.50;82.11
79799;BME280;69283;48.024;11.090;2023-04-24T04:21:01;94462.38;;;8.48;81.73
79799;BME280;69283;48.024;11.090;2023-04-24T04:23:26;94465.19;;;8.52;81.76
79799;BME280;69283;48.024;11.090;2023-04-24T04:25:53;94473.53;;;8.47;80.80
79799;BME280;69283;48.024;11.090;2023-04-24T04:28:18;94474.22;;;8.44;80.93
79799;BME280;69283;48.024;11.090;2023-04-24T04:30:44;94467.13;;;8.39;81.66
79799;BME280;69283;48.024;11.090;2023-04-24T04:33:10;94480.19;;;8.37;80.81
79799;BME280;69283;48.024;11.090;2023-04-24T04:35:35;94480.75;;;8.31;80.99
79799;BME280;69283;48.024;11.090;2023-04-24T04:38:01;94475.00;;;8.32;81.16
79799;BME280;69283;48.024;11.090;2023-04-24T04:40:26;94482.47;;;8.23;81.52
79799;BME280;69283;48.024;11.090;2023-04-24T04:42:53;94476.16;;;8.19;80.22
79799;BME280;69283;48.024;11.090;2023-04-24T04:45:19;94484.25;;;8.19;80.58
79799;BME280;69283;48.024;11.090;2023-04-24T04:47:45;94478.06;;;8.18;81.45
79799;BME280;69283;48.024;11.090;2023-04-24T04:50:11;94476.28;;;8.22;80.91
79799;BME280;69283;48.024;11.090;2023-04-24T04:52:36;94478.66;;;8.24;81.29
79799;BME280;69283;48.024;11.090;2023-04-24T04:55:02;94479.78;;;8.23;81.19
79799;BME280;69283;48.024;11.090;2023-04-24T04:57:27;94482.81;;;8.21;80.11
79799;BME280;69283;48.024;11.090;2023-04-24T04:59:53;94490.66;;;8.27;80.65
79799;BME280;69283;48.024;11.090;2023-04-24T05:02:18;94489.19;;;8.29;80.22
79799;BME280;69283;48.024;11.090;2023-04-24T05:04:44;94488.97;;;8.34;80.48
79799;BME280;69283;48.024;11.090;2023-04-24T05:07:10;94489.28;;;8.33;79.95
79799;BME280;69283;48.024;11.090;2023-04-24T05:09:35;94487.38;;;8.33;80.40
79799;BME280;69283;48.024;11.090;2023-04-24T05:12:01;94494.38;;;8.34;80.85
79799;BME280;69283;48.024;11.090;2023-04-24T05:14:27;94493.91;;;8.32;81.03
79799;BME280;69283;48.024;11.090;2023-04-24T05:16:52;94495.47;;;8.33;79.85
79799;BME280;69283;48.024;11.090;2023-04-24T05:19:17;94496.81;;;8.39;80.64
79799;BME280;69283;48.024;11.090;2023-04-24T05:21:43;94500.44;;;8.43;80.75
79799;BME280;69283;48.024;11.090;2023-04-24T05:24:08;94503.47;;;8.42;80.50
79799;BME280;69283;48.024;11.090;2023-04-24T05:26:34;94502.69;;;8.41;80.41
79799;BME280;69283;48.024;11.090;2023-04-24T05:29:00;94505.84;;;8.43;80.90
79799;BME280;69283;48.024;11.090;2023-04-24T05:31:26;94500.19;;;8.48;78.96
79799;BME280;69283;48.024;11.090;2023-04-24T05:33:51;94502.66;;;8.53;79.74
79799;BME280;69283;48.024;11.090;2023-04-24T05:36:17;94506.47;;;8.52;79.44
79799;BME280;69283;48.024;11.090;2023-04-24T05:38:42;94496.81;;;8.51;79.63
79799;BME280;69283;48.024;11.090;2023-04-24T05:41:07;94501.06;;;8.52;79.80
79799;BME280;69283;48.024;11.090;2023-04-24T05:43:33;94502.09;;;8.48;79.51
79799;BME280;69283;48.024;11.090;2023-04-24T05:45:58;94505.59;;;8.48;79.03
79799;BME280;69283;48.024;11.090;2023-04-24T05:48:23;94502.91;;;8.48;79.17
79799;BME280;69283;48.024;11.090;2023-04-24T05:50:49;94496.63;;;8.44;79.03
79799;BME280;69283;48.024;11.090;2023-04-24T05:53:14;94513.59;;;8.45;79.32
79799;BME280;69283;48.024;11.090;2023-04-24T05:55:40;94509.75;;;8.46;79.12
79799;BME280;69283;48.024;11.090;2023-04-24T05:58:05;94510.22;;;8.48;78.49
79799;BME280;69283;48.024;11.090;2023-04-24T06:00:31;94523.81;;;8.51;78.63
79799;BME280;69283;48.024;11.090;2023-04-24T06:02:57;94517.28;;;8.52;77.18
79799;BME280;69283;48.024;11.090;2023-04-24T06:05:23;94511.00;;;8.48;78.06
79799;BME280;69283;48.024;11.090;2023-04-24T06:07:48;94524.94;;;8.50;79.05
79799;BME280;69283;48.024;11.090;2023-04-24T06:10:13;94531.47;;;8.49;79.09
79799;BME280;69283;48.024;11.090;2023-04-24T06:12:39;94526.06;;;8.49;78.34
79799;BME280;69283;48.024;11.090;2023-04-24T06:15:05;94516.59;;;8.56;79.17
79799;BME280;69283;48.024;11.090;2023-04-24T06:17:30;94511.28;;;8.59;77.82
79799;BME280;69283;48.024;11.090;2023-04-24T06:19:56;94512.06;;;8.60;77.46
79799;BME280;69283;48.024;11.090;2023-04-24T06:22:21;94516.34;;;8.61;78.17
79799;BME280;69283;48.024;11.090;2023-04-24T06:24:46;94523.34;;;8.62;76.71
79799;BME280;69283;48.024;11.090;2023-04-24T06:27:13;94526.47;;;8.64;78.09
79799;BME280;69283;48.024;11.090;2023-04-24T06:29:38;94531.53;;;8.65;77.38
79799;BME280;69283;48.024;11.090;2023-04-24T06:32:04;94531.88;;;8.64;76.84
79799;BME280;69283;48.024;11.090;2023-04-24T06:34:29;94542.00;;;8.67;77.00
79799;BME280;69283;48.024;11.090;2023-04-24T06:36:55;94535.47;;;8.68;77.99
79799;BME280;69283;48.024;11.090;2023-04-24T06:39:21;94530.25;;;8.75;77.74
79799;BME280;69283;48.024;11.090;2023-04-24T06:41:46;94535.06;;;8.81;77.81
79799;BME280;69283;48.024;11.090;2023-04-24T06:44:11;94542.59;;;8.88;77.31
79799;BME280;69283;48.024;11.090;2023-04-24T06:46:37;94538.06;;;8.92;76.75
79799;BME280;69283;48.024;11.090;2023-04-24T06:49:02;94538.94;;;8.96;75.80
79799;BME280;69283;48.024;11.090;2023-04-24T06:51:27;94535.19;;;9.01;74.70
79799;BME280;69283;48.024;11.090;2023-04-24T06:53:53;94537.34;;;8.95;76.35
79799;BME280;69283;48.024;11.090;2023-04-24T06:56:19;94545.91;;;8.97;75.38
79799;BME280;69283;48.024;11.090;2023-04-24T06:58:45;94543.06;;;9.06;75.49
79799;BME280;69283;48.024;11.090;2023-04-24T07:01:11;94544.28;;;9.08;77.27
79799;BME280;69283;48.024;11.090;2023-04-24T07:03:36;94540.97;;;9.15;75.96
79799;BME280;69283;48.024;11.090;2023-04-24T07:06:02;94537.94;;;9.17;75.36
79799;BME280;69283;48.024;11.090;2023-04-24T07:08:29;94542.75;;;9.23;76.51
79799;BME280;69283;48.024;11.090;2023-04-24T07:10:58;94546.59;;;9.22;76.57
79799;BME280;69283;48.024;11.090;2023-04-24T07:13:24;94554.88;;;9.29;76.58
79799;BME280;69283;48.024;11.090;2023-04-24T07:15:49;94554.72;;;9.38;74.79
79799;BME280;69283;48.024;11.090;2023-04-24T07:18:16;94567.09;;;9.39;75.72
79799;BME280;69283;48.024;11.090;2023-04-24T07:20:42;94562.66;;;9.47;74.72
79799;BME280;69283;48.024;11.090;2023-04-24T07:23:07;94565.72;;;9.45;74.25
79799;BME280;69283;48.024;11.090;2023-04-24T07:25:32;94566.69;;;9.53;75.00
79799;BME280;69283;48.024;11.090;2023-04-24T07:27:58;94565.47;;;9.50;73.78
79799;BME280;69283;48.024;11.090;2023-04-24T07:30:23;94567.91;;;9.55;74.82
79799;BME280;69283;48.024;11.090;2023-04-24T07:32:49;94563.81;;;9.61;74.56
79799;BME280;69283;48.024;11.090;2023-04-24T07:35:15;94566.34;;;9.70;73.48
79799;BME280;69283;48.024;11.090;2023-04-24T07:37:40;94571.41;;;9.71;73.16
79799;BME280;69283;48.024;11.090;2023-04-24T07:40:11;94581.97;;;9.76;72.91
79799;BME280;69283;48.024;11.090;2023-04-24T07:42:37;94571.56;;;9.79;73.58
79799;BME280;69283;48.024;11.090;2023-04-24T07:45:03;94572.91;;;9.85;73.53
79799;BME280;69283;48.024;11.090;2023-04-24T07:47:29;94577.53;;;9.84;72.40
79799;BME280;69283;48.024;11.090;2023-04-24T07:49:54;94584.84;;;9.84;72.02
79799;BME280;69283;48.024;11.090;2023-04-24T07:52:20;94585.53;;;9.81;71.22
79799;BME280;69283;48.024;11.090;2023-04-24T07:54:45;94581.97;;;9.76;71.60
79799;BME280;69283;48.024;11.090;2023-04-24T07:57:10;94585.81;;;9.75;72.08
79799;BME280;69283;48.024;11.090;2023-04-24T07:59:35;94585.81;;;9.75;70.62
79799;BME280;69283;48.024;11.090;2023-04-24T08:02:01;94587.28;;;9.73;69.62
79799;BME280;69283;48.024;11.090;2023-04-24T08:04:26;94616.97;;;9.69;71.25
79799;BME280;69283;48.024;11.090;2023-04-24T08:06:52;94626.34;;;9.44;67.06
79799;BME280;69283;48.024;11.090;2023-04-24T08:09:17;94629.47;;;9.02;68.79
79799;BME280;69283;48.024;11.090;2023-04-24T08:11:43;94637.16;;;8.88;71.27
79799;BME280;69283;48.024;11.090;2023-04-24T08:14:08;94635.59;;;8.75;71.47
79799;BME280;69283;48.024;11.090;2023-04-24T08:16:34;94641.47;;;8.65;72.32
79799;BME280;69283;48.024;11.090;2023-04-24T08:19:00;94643.50;;;8.56;72.59
79799;BME280;69283;48.024;11.090;2023-04-24T08:21:25;94635.75;;;8.54;72.98
79799;BME280;69283;48.024;11.090;2023-04-24T08:23:52;94634.72;;;8.59;73.52
79799;BME280;69283;48.024;11.090;2023-04-24T08:26:17;94645.19;;;8.60;73.06
79799;BME280;69283;48.024;11.090;2023-04-24T08:28:43;94634.06;;;8.62;73.10
79799;BME280;69283;48.024;11.090;2023-04-24T08:31:08;94638.53;;;8.70;73.94
79799;BME280;69283;48.024;11.090;2023-04-24T08:33:33;94634.91;;;8.78;73.44
79799;BME280;69283;48.024;11.090;2023-04-24T08:36:05;94641.66;;;8.84;72.71
79799;BME280;69283;48.024;11.090;2023-04-24T08:38:31;94641.16;;;8.94;72.10
79799;BME280;69283;48.024;11.090;2023-04-24T08:40:58;94642.41;;;8.97;71.70
79799;BME280;69283;48.024;11.090;2023-04-24T08:43:25;94656.47;;;9.02;72.30
79799;BME280;69283;48.024;11.090;2023-04-24T08:45:51;94658.25;;;9.10;71.35
79799;BME280;69283;48.024;11.090;2023-04-24T08:48:17;94663.84;;;9.18;70.96
79799;BME280;69283;48.024;11.090;2023-04-24T08:50:43;94663.38;;;9.28;71.77
79799;BME280;69283;48.024;11.090;2023-04-24T08:53:09;94660.59;;;9.40;72.66
79799;BME280;69283;48.024;11.090;2023-04-24T08:55:35;94664.75;;;9.50;70.99
79799;BME280;69283;48.024;11.090;2023-04-24T08:58:02;94669.19;;;9.58;69.94
79799;BME280;69283;48.024;11.090;2023-04-24T09:00:28;94669.06;;;9.66;70.38
79799;BME280;69283;48.024;11.090;2023-04-24T09:02:55;94661.28;;;9.81;71.28
79799;BME280;69283;48.024;11.090;2023-04-24T09:05:21;94662.03;;;9.93;70.29
79799;BME280;69283;48.024;11.090;2023-04-24T09:07:50;94657.66;;;10.04;70.23
79799;BME280;69283;48.024;11.090;2023-04-24T09:10:18;94664.91;;;10.16;69.63
79799;BME280;69283;48.024;11.090;2023-04-24T09:12:44;94661.88;;;10.33;69.52
79799;BME280;69283;48.024;11.090;2023-04-24T09:15:10;94667.91;;;10.43;69.60
79799;BME280;69283;48.024;11.090;2023-04-24T09:17:36;94658.09;;;10.54;69.61
79799;BME280;69283;48.024;11.090;2023-04-24T09:20:01;94653.72;;;10.65;67.79
79799;BME280;69283;48.024;11.090;2023-04-24T09:22:30;94655.91;;;10.59;66.76
79799;BME280;69283;48.024;11.090;2023-04-24T09:25:08;94644.03;;;10.64;66.03
79799;BME280;69283;48.024;11.090;2023-04-24T09:27:34;94643.81;;;10.73;65.08
79799;BME280;69283;48.024;11.090;2023-04-24T09:30:03;94644.06;;;10.83;65.27
79799;BME280;69283;48.024;11.090;2023-04-24T09:32:28;94637.25;;;11.09;66.66
79799;BME280;69283;48.024;11.090;2023-04-24T09:35:24;94623.63;;;11.24;63.13
79799;BME280;69283;48.024;11.090;2023-04-24T09:37:49;94628.78;;;11.52;65.21
79799;BME280;69283;48.024;11.090;2023-04-24T09:40:21;94629.56;;;11.72;62.78
79799;BME280;69283;48.024;11.090;2023-04-24T09:42:54;94620.00;;;11.78;62.10
79799;BME280;69283;48.024;11.090;2023-04-24T09:45:21;94632.25;;;11.92;61.61
79799;BME280;69283;48.024;11.090;2023-04-24T09:47:51;94626.63;;;11.81;59.85
79799;BME280;69283;48.024;11.090;2023-04-24T09:50:17;94634.06;;;11.84;60.30
79799;BME280;69283;48.024;11.090;2023-04-24T09:52:56;94630.38;;;11.96;61.50
79799;BME280;69283;48.024;11.090;2023-04-24T09:55:21;94635.16;;;12.02;59.24
79799;BME280;69283;48.024;11.090;2023-04-24T09:57:55;94643.97;;;11.96;59.28
79799;BME280;69283;48.024;11.090;2023-04-24T10:02:54;94629.47;;;12.11;58.09
79799;BME280;69283;48.024;11.090;2023-04-24T10:05:23;94633.47;;;11.94;56.89
79799;BME280;69283;48.024;11.090;2023-04-24T10:07:48;94625.75;;;11.77;56.00
79799;BME280;69283;48.024;11.090;2023-04-24T10:10:13;94633.88;;;11.77;57.90
79799;BME280;69283;48.024;11.090;2023-04-24T10:12:39;94644.34;;;11.75;58.38
79799;BME280;69283;48.024;11.090;2023-04-24T10:15:05;94673.94;;;11.41;58.83
79799;BME280;69283;48.024;11.090;2023-04-24T10:17:32;94672.88;;;10.91;59.70
79799;BME280;69283;48.024;11.090;2023-04-24T10:19:58;94685.03;;;10.47;62.73
79799;BME280;69283;48.024;11.090;2023-04-24T10:22:25;94688.72;;;9.95;65.49
79799;BME280;69283;48.024;11.090;2023-04-24T10:24:52;94691.56;;;9.70;68.37
79799;BME280;69283;48.024;11.090;2023-04-24T10:27:17;94681.16;;;9.57;69.84
79799;BME280;69283;48.024;11.090;2023-04-24T10:29:43;94680.72;;;9.55;69.40
79799;BME280;69283;48.024;11.090;2023-04-24T10:32:09;94657.25;;;9.59;69.53
79799;BME280;69283;48.024;11.090;2023-04-24T10:34:36;94662.53;;;9.83;69.17
79799;BME280;69283;48.024;11.090;2023-04-24T10:37:02;94654.88;;;10.17;68.14
79799;BME280;69283;48.024;11.090;2023-04-24T10:39:27;94658.09;;;10.54;66.23
79799;BME280;69283;48.024;11.090;2023-04-24T10:41:55;94661.19;;;10.87;66.65
79799;BME280;69283;48.024;11.090;2023-04-24T10:44:22;94650.50;;;11.14;64.10
79799;BME280;69283;48.024;11.090;2023-04-24T10:46:53;94651.53;;;11.25;61.67
79799;BME280;69283;48.024;11.090;2023-04-24T10:49:28;94666.47;;;11.19;61.83
79799;BME280;69283;48.024;11.090;2023-04-24T10:51:54;94656.50;;;11.04;62.28
79799;BME280;69283;48.024;11.090;2023-04-24T10:54:30;94671.53;;;11.01;62.65
79799;BME280;69283;48.024;11.090;2023-04-24T10:59:50;94656.41;;;11.19;64.63
79799;BME280;69283;48.024;11.090;2023-04-24T11:02:17;94658.50;;;11.45;64.40
79799;BME280;69283;48.024;11.090;2023-04-24T11:04:44;94667.25;;;11.77;64.33
79799;BME280;69283;48.024;11.090;2023-04-24T11:07:10;94659.88;;;11.97;61.96
79799;BME280;69283;48.024;11.090;2023-04-24T11:09:36;94662.06;;;12.11;59.76
79799;BME280;69283;48.024;11.090;2023-04-24T11:12:07;94659.00;;;12.12;56.91
79799;BME280;69283;48.024;11.090;2023-04-24T11:17:50;94649.44;;;12.45;56.25
79799;BME280;69283;48.024;11.090;2023-04-24T11:20:23;94641.28;;;12.45;56.08
79799;BME280;69283;48.024;11.090;2023-04-24T11:22:48;94647.00;;;12.40;56.43
79799;BME280;69283;48.024;11.090;2023-04-24T11:25:17;94652.75;;;12.35;57.33
79799;BME280;69283;48.024;11.090;2023-04-24T11:27:44;94666.09;;;12.21;57.58
79799;BME280;69283;48.024;11.090;2023-04-24T11:30:11;94666.81;;;11.95;59.94
79799;BME280;69283;48.024;11.090;2023-04-24T11:32:41;94679.19;;;11.53;63.06
79799;BME280;69283;48.024;11.090;2023-04-24T11:35:22;94679.69;;;11.20;64.78
79799;BME280;69283;48.024;11.090;2023-04-24T11:37:53;94680.19;;;10.72;66.49
79799;BME280;69283;48.024;11.090;2023-04-24T11:40:21;94677.50;;;10.56;70.22
79799;BME280;69283;48.024;11.090;2023-04-24T11:42:51;94676.72;;;10.55;71.02
79799;BME280;69283;48.024;11.090;2023-04-24T11:45:25;94680.56;;;10.54;72.71
79799;BME280;69283;48.024;11.090;2023-04-24T11:47:51;94681.41;;;10.58;73.69
79799;BME280;69283;48.024;11.090;2023-04-24T11:50:22;94679.84;;;10.57;74.24
79799;BME280;69283;48.024;11.090;2023-04-24T11:52:49;94672.69;;;10.65;74.93
79799;BME280;69283;48.024;11.090;2023-04-24T11:57:42;94678.34;;;10.60;72.81
79799;BME280;69283;48.024;11.090;2023-04-24T12:00:15;94683.34;;;10.58;73.07
79799;BME280;69283;48.024;11.090;2023-04-24T12:02:41;94688.06;;;10.61;73.49
79799;BME280;69283;48.024;11.090;2023-04-24T12:05:06;94694.97;;;10.58;73.76
79799;BME280;69283;48.024;11.090;2023-04-24T12:07:40;94689.19;;;10.60;73.14
79799;BME280;69283;48.024;11.090;2023-04-24T12:10:08;94686.06;;;10.58;72.63
79799;BME280;69283;48.024;11.090;2023-04-24T12:12:34;94690.19;;;10.52;70.71
79799;BME280;69283;48.024;11.090;2023-04-24T12:15:00;94692.72;;;10.45;69.27
79799;BME280;69283;48.024;11.090;2023-04-24T12:17:32;94689.66;;;10.46;70.64
79799;BME280;69283;48.024;11.090;2023-04-24T12:19:59;94685.53;;;10.36;69.96
79799;BME280;69283;48.024;11.090;2023-04-24T12:22:25;94688.25;;;10.36;69.09
79799;BME280;69283;48.024;11.090;2023-04-24T12:25:03;94696.56;;;10.44;67.08
79799;BME280;69283;48.024;11.090;2023-04-24T12:27:33;94697.44;;;10.48;67.40
79799;BME280;69283;48.024;11.090;2023-04-24T12:30:01;94692.19;;;10.55;65.64
79799;BME280;69283;48.024;11.090;2023-04-24T12:32:27;94706.56;;;10.75;67.65
79799;BME280;69283;48.024;11.090;2023-04-24T12:34:54;94690.06;;;10.99;64.43
79799;BME280;69283;48.024;11.090;2023-04-24T12:37:20;94691.06;;;11.26;62.45
79799;BME280;69283;48.024;11.090;2023-04-24T12:42:31;94690.28;;;11.64;59.79
79799;BME280;69283;48.024;11.090;2023-04-24T12:44:57;94685.22;;;11.82;60.24
79799;BME280;69283;48.024;11.090;2023-04-24T12:47:24;94679.97;;;11.93;58.41
79799;BME280;69283;48.024;11.090;2023-04-24T12:49:49;94676.53;;;11.96;56.03
79799;BME280;69283;48.024;11.090;2023-04-24T12:52:17;94678.94;;;12.01;58.30
79799;BME280;69283;48.024;11.090;2023-04-24T12:54:43;94684.63;;;11.92;56.94
79799;BME280;69283;48.024;11.090;2023-04-24T12:57:08;94685.22;;;11.82;56.84
79799;BME280;69283;48.024;11.090;2023-04-24T12:59:33;94717.78;;;11.63;59.06
79799;BME280;69283;48.024;11.090;2023-04-24T13:01:58;94722.47;;;11.27;62.62
79799;BME280;69283;48.024;11.090;2023-04-24T13:04:24;94717.78;;;10.73;64.27
79799;BME280;69283;48.024;11.090;2023-04-24T13:06:50;94710.91;;;10.28;66.35